sensor_id;sensor_type;location;lat;lon;timestamp;pressure;altitude;pressure_sealevel;temperature;humidity
10006;BME280;5042;42.626;23.382;2023-05-10T00:01:22;94668.84;;;9.93;100.00
10006;BME280;5042;42.626;23.382;2023-05-10T00:03:49;94665.81;;;10.04;100.00
10006;BME280;5042;42.626;23.382;2023-05-10T00:06:15;94667.03;;;10.08;100.00
10006;BME280;5042;42.626;23.382;2023-05-10T00:08:44;94662.53;;;10.02;100.00
10006;BME280;5042;42.626;23.382;2023-05-10T00:11:10;94665.81;;;10.04;100.00
10006;BME280;5042;42.626;23.382;2023-05-10T00:13:39;94662.19;;;10.05;100.00
10006;BME280;5042;42.626;23.382;2023-05-10T00:16:06;94661.38;;;10.05;100.00
10006;BME280;5042;42.626;23.382;2023-05-10T00:18:33;94656.38;;;9.95;100.00
10006;BME280;5042;42.626;23.382;2023-05-10T00:21:00;94656.13;;;10.05;100.00
10006;BME280;5042;42.626;23.382;2023-05-10T00:23:26;94659.97;;;9.94;100.00
10006;BME280;5042;42.626;23.382;2023-05-10T00:25:53;94647.13;;;9.69;100.00
10006;BME280;5042;42.626;23.382;2023-05-10T00:28:20;94650.25;;;9.88;100.00
10006;BME280;5042;42.626;23.382;2023-05-10T00:30:48;94656.00;;;9.83;100.00
10006;BME280;5042;42.626;23.382;2023-05-10T00:33:15;94639.03;;;9.56;100.00
10006;BME280;5042;42.626;23.382;2023-05-10T00:35:41;94646.91;;;9.56;100.00
10006;BME280;5042;42.626;23.382;2023-05-10T00:38:08;94648.25;;;9.52;100.00
10006;BME280;5042;42.626;23.382;2023-05-10T00:40:35;94641.84;;;9.31;100.00
10006;BME280;5042;42.626;23.382;2023-05-10T00:43:02;94645.34;;;9.47;100.00
10006;BME280;5042;42.626;23.382;2023-05-10T00:45:29;94649.50;;;9.56;100.00
10006;BME280;5042;42.626;23.382;2023-05-10T00:47:58;94639.97;;;9.63;100.00
10006;BME280;5042;42.626;23.382;2023-05-10T00:50:25;94643.50;;;9.70;100.00
10006;BME280;5042;42.626;23.382;2023-05-10T00:52:52;94648.91;;;9.54;100.00
10006;BME280;5042;42.626;23.382;2023-05-10T00:55:19;94645.63;;;9.52;100.00
10006;BME280;5042;42.626;23.382;2023-05-10T00:57:47;94639.69;;;9.58;100.00
10006;BME280;5042;42.626;23.382;2023-05-10T01:00:14;94644.59;;;9.61;100.00
10006;BME280;5042;42.626;23.382;2023-05-10T01:02:43;94639.03;;;9.56;100.00
10006;BME280;5042;42.626;23.382;2023-05-10T01:05:12;94648.47;;;9.65;100.00
10006;BME280;5042;42.626;23.382;2023-05-10T01:07:39;94636.09;;;9.59;100.00
10006;BME280;5042;42.626;23.382;2023-05-10T01:10:07;94642.94;;;9.60;100.00
10006;BME280;5042;42.626;23.382;2023-05-10T01:12:37;94637.16;;;9.50;100.00
10006;BME280;5042;42.626;23.382;2023-05-10T01:15:06;94614.00;;;9.39;100.00
10006;BME280;5042;42.626;23.382;2023-05-10T01:17:34;94637.53;;;9.62;100.00
10006;BME280;5042;42.626;23.382;2023-05-10T01:20:02;94630.78;;;9.67;100.00
10006;BME280;5042;42.626;23.382;2023-05-10T01:22:48;94635.69;;;9.47;100.00
10006;BME280;5042;42.626;23.382;2023-05-10T01:25:37;94628.53;;;9.41;100.00
10006;BME280;5042;42.626;23.382;2023-05-10T01:28:33;94631.41;;;9.31;100.00
10006;BME280;5042;42.626;23.382;2023-05-10T01:31:22;94632.72;;;9.27;100.00
10006;BME280;5042;42.626;23.382;2023-05-10T01:33:55;94627.22;;;9.22;100.00
10006;BME280;5042;42.626;23.382;2023-05-10T01:36:26;94619.66;;;9.04;100.00
10006;BME280;5042;42.626;23.382;2023-05-10T01:39:01;94618.81;;;9.04;100.00
10006;BME280;5042;42.626;23.382;2023-05-10T01:41:37;94618.22;;;9.02;100.00
10006;BME280;5042;42.626;23.382;2023-05-10T01:44:14;94624.22;;;8.79;100.00
10006;BME280;5042;42.626;23.382;2023-05-10T01:46:43;94617.19;;;8.80;100.00
10006;BME280;5042;42.626;23.382;2023-05-10T01:49:20;94613.72;;;8.87;100.00
10006;BME280;5042;42.626;23.382;2023-05-10T01:51:50;94614.13;;;8.76;100.00
10006;BME280;5042;42.626;23.382;2023-05-10T01:54:21;94588.16;;;8.35;100.00
10006;BME280;5042;42.626;23.382;2023-05-10T01:56:52;94597.22;;;8.56;100.00
10006;BME280;5042;42.626;23.382;2023-05-10T01:59:22;94608.38;;;8.49;100.00
10006;BME280;5042;42.626;23.382;2023-05-10T02:01:52;94611.69;;;8.35;100.00
10006;BME280;5042;42.626;23.382;2023-05-10T02:04:22;94609.41;;;8.40;100.00
10006;BME280;5042;42.626;23.382;2023-05-10T02:06:51;94612.94;;;8.39;100.00
10006;BME280;5042;42.626;23.382;2023-05-10T02:09:20;94611.97;;;8.48;100.00
10006;BME280;5042;42.626;23.382;2023-05-10T02:11:49;94598.53;;;8.04;100.00
10006;BME280;5042;42.626;23.382;2023-05-10T02:14:17;94576.03;;;8.03;100.00
10006;BME280;5042;42.626;23.382;2023-05-10T02:16:46;94621.34;;;8.18;100.00
10006;BME280;5042;42.626;23.382;2023-05-10T02:19:14;94615.16;;;8.11;100.00
10006;BME280;5042;42.626;23.382;2023-05-10T02:21:43;94621.06;;;8.05;100.00
10006;BME280;5042;42.626;23.382;2023-05-10T02:24:11;94621.22;;;8.03;100.00
10006;BME280;5042;42.626;23.382;2023-05-10T02:26:40;94619.47;;;7.88;100.00
10006;BME280;5042;42.626;23.382;2023-05-10T02:29:08;94617.03;;;7.86;100.00
10006;BME280;5042;42.626;23.382;2023-05-10T02:31:37;94613.63;;;7.85;100.00
10006;BME280;5042;42.626;23.382;2023-05-10T02:34:06;94614.94;;;7.81;100.00
10006;BME280;5042;42.626;23.382;2023-05-10T02:36:34;94612.19;;;7.67;100.00
10006;BME280;5042;42.626;23.382;2023-05-10T02:39:03;94611.53;;;7.56;100.00
10006;BME280;5042;42.626;23.382;2023-05-10T02:41:35;94566.56;;;7.13;100.00
10006;BME280;5042;42.626;23.382;2023-05-10T02:44:04;94612.34;;;7.57;100.00
10006;BME280;5042;42.626;23.382;2023-05-10T02:46:33;94603.53;;;7.58;100.00
10006;BME280;5042;42.626;23.382;2023-05-10T02:49:00;94581.41;;;7.46;100.00
10006;BME280;5042;42.626;23.382;2023-05-10T02:51:30;94610.88;;;7.62;100.00
10006;BME280;5042;42.626;23.382;2023-05-10T02:54:04;94606.31;;;7.56;100.00
10006;BME280;5042;42.626;23.382;2023-05-10T02:56:34;94430.75;;;6.34;100.00
10006;BME280;5042;42.626;23.382;2023-05-10T02:59:02;94599.47;;;7.55;100.00
10006;BME280;5042;42.626;23.382;2023-05-10T03:01:29;94599.47;;;7.55;100.00
10006;BME280;5042;42.626;23.382;2023-05-10T03:03:56;94607.78;;;7.51;100.00
10006;BME280;5042;42.626;23.382;2023-05-10T03:06:22;94582.84;;;7.40;100.00
10006;BME280;5042;42.626;23.382;2023-05-10T03:08:49;94606.81;;;7.52;100.00
10006;BME280;5042;42.626;23.382;2023-05-10T03:11:35;94612.19;;;7.58;100.00
10006;BME280;5042;42.626;23.382;2023-05-10T03:14:10;94600.28;;;7.64;100.00
10006;BME280;5042;42.626;23.382;2023-05-10T03:16:42;94601.09;;;7.56;100.00
10006;BME280;5042;42.626;23.382;2023-05-10T03:19:16;94607.97;;;7.57;100.00
10006;BME280;5042;42.626;23.382;2023-05-10T03:21:49;94610.72;;;7.56;100.00
10006;BME280;5042;42.626;23.382;2023-05-10T03:24:17;94611.06;;;7.53;100.00
10006;BME280;5042;42.626;23.382;2023-05-10T03:26:47;94609.56;;;7.58;100.00
10006;BME280;5042;42.626;23.382;2023-05-10T03:29:15;94557.75;;;7.31;100.00
10006;BME280;5042;42.626;23.382;2023-05-10T03:31:43;94617.91;;;7.62;100.00
10006;BME280;5042;42.626;23.382;2023-05-10T03:34:10;94615.75;;;7.65;100.00
10006;BME280;5042;42.626;23.382;2023-05-10T03:36:37;94617.41;;;7.67;100.00
10006;BME280;5042;42.626;23.382;2023-05-10T03:39:04;94621.66;;;7.59;100.00
10006;BME280;5042;42.626;23.382;2023-05-10T03:41:31;94620.31;;;7.63;100.00
10006;BME280;5042;42.626;23.382;2023-05-10T03:43:59;94618.38;;;7.65;100.00
10006;BME280;5042;42.626;23.382;2023-05-10T03:46:25;94613.81;;;7.59;100.00
10006;BME280;5042;42.626;23.382;2023-05-10T03:48:52;94618.72;;;7.62;100.00
10006;BME280;5042;42.626;23.382;2023-05-10T03:51:19;94625.22;;;7.58;100.00
10006;BME280;5042;42.626;23.382;2023-05-10T03:53:46;94624.91;;;7.53;100.00
10006;BME280;5042;42.626;23.382;2023-05-10T03:56:12;94627.69;;;7.43;100.00
10006;BME280;5042;42.626;23.382;2023-05-10T03:58:39;94631.28;;;7.51;100.00
10006;BME280;5042;42.626;23.382;2023-05-10T04:01:07;94629.63;;;7.50;100.00
10006;BME280;5042;42.626;23.382;2023-05-10T04:03:34;94639.09;;;7.51;100.00
10006;BME280;5042;42.626;23.382;2023-05-10T04:06:01;94636.63;;;7.49;100.00
10006;BME280;5042;42.626;23.382;2023-05-10T04:08:28;94638.59;;;7.63;100.00
10006;BME280;5042;42.626;23.382;2023-05-10T04:11:04;94644.78;;;7.71;100.00
10006;BME280;5042;42.626;23.382;2023-05-10T04:13:31;94642.03;;;7.64;100.00
10006;BME280;5042;42.626;23.382;2023-05-10T04:15:58;94639.91;;;7.59;100.00
10006;BME280;5042;42.626;23.382;2023-05-10T04:18:26;94645.44;;;7.64;100.00
10006;BME280;5042;42.626;23.382;2023-05-10T04:20:53;94640.22;;;7.73;100.00
10006;BME280;5042;42.626;23.382;2023-05-10T04:23:20;94644.66;;;7.64;100.00
10006;BME280;5042;42.626;23.382;2023-05-10T04:25:46;94632.53;;;7.79;100.00
10006;BME280;5042;42.626;23.382;2023-05-10T04:28:13;94639.88;;;7.84;100.00
10006;BME280;5042;42.626;23.382;2023-05-10T04:30:40;94638.59;;;7.72;100.00
10006;BME280;5042;42.626;23.382;2023-05-10T04:33:07;94639.56;;;7.54;100.00
10006;BME280;5042;42.626;23.382;2023-05-10T04:35:35;94634.34;;;7.71;100.00
10006;BME280;5042;42.626;23.382;2023-05-10T04:38:02;94637.94;;;7.70;100.00
10006;BME280;5042;42.626;23.382;2023-05-10T04:40:29;94637.44;;;7.91;100.00
10006;BME280;5042;42.626;23.382;2023-05-10T04:42:56;94644.09;;;7.93;100.00
10006;BME280;5042;42.626;23.382;2023-05-10T04:45:23;94636.94;;;7.95;100.00
10006;BME280;5042;42.626;23.382;2023-05-10T04:47:50;94640.19;;;7.97;100.00
10006;BME280;5042;42.626;23.382;2023-05-10T04:50:16;94633.81;;;8.00;100.00
10006;BME280;5042;42.626;23.382;2023-05-10T04:52:45;94644.88;;;8.10;100.00
10006;BME280;5042;42.626;23.382;2023-05-10T04:55:11;94646.66;;;8.18;100.00
10006;BME280;5042;42.626;23.382;2023-05-10T04:57:39;94637.50;;;8.22;100.00
10006;BME280;5042;42.626;23.382;2023-05-10T05:00:07;94643.88;;;8.19;100.00
10006;BME280;5042;42.626;23.382;2023-05-10T05:02:34;94635.56;;;8.16;100.00
10006;BME280;5042;42.626;23.382;2023-05-10T05:05:01;94640.97;;;8.14;100.00
10006;BME280;5042;42.626;23.382;2023-05-10T05:07:28;94639.31;;;8.13;100.00
10006;BME280;5042;42.626;23.382;2023-05-10T05:09:57;94645.00;;;8.25;100.00
10006;BME280;5042;42.626;23.382;2023-05-10T05:12:24;94640.06;;;8.30;100.00
10006;BME280;5042;42.626;23.382;2023-05-10T05:14:50;94642.56;;;8.15;100.00
10006;BME280;5042;42.626;23.382;2023-05-10T05:17:17;94634.28;;;8.03;100.00
10006;BME280;5042;42.626;23.382;2023-05-10T05:19:44;94646.31;;;8.21;100.00
10006;BME280;5042;42.626;23.382;2023-05-10T05:22:10;94647.25;;;8.28;100.00
10006;BME280;5042;42.626;23.382;2023-05-10T05:24:37;94657.28;;;8.16;100.00
10006;BME280;5042;42.626;23.382;2023-05-10T05:27:06;94646.38;;;8.04;100.00
10006;BME280;5042;42.626;23.382;2023-05-10T05:29:33;94655.16;;;8.03;100.00
10006;BME280;5042;42.626;23.382;2023-05-10T05:32:00;94652.22;;;8.15;100.00
10006;BME280;5042;42.626;23.382;2023-05-10T05:34:26;94653.56;;;8.02;100.00
10006;BME280;5042;42.626;23.382;2023-05-10T05:36:53;94662.81;;;8.21;100.00
10006;BME280;5042;42.626;23.382;2023-05-10T05:39:20;94663.31;;;8.17;100.00
10006;BME280;5042;42.626;23.382;2023-05-10T05:41:47;94663.63;;;8.22;100.00
10006;BME280;5042;42.626;23.382;2023-05-10T05:44:15;94667.53;;;8.18;100.00
10006;BME280;5042;42.626;23.382;2023-05-10T05:46:42;94667.56;;;8.10;100.00
10006;BME280;5042;42.626;23.382;2023-05-10T05:49:09;94663.97;;;8.19;100.00
10006;BME280;5042;42.626;23.382;2023-05-10T05:51:35;94662.66;;;8.15;100.00
10006;BME280;5042;42.626;23.382;2023-05-10T05:54:03;94659.56;;;8.11;100.00
10006;BME280;5042;42.626;23.382;2023-05-10T05:56:30;94663.66;;;8.05;100.00
10006;BME280;5042;42.626;23.382;2023-05-10T05:58:56;94671.78;;;8.11;100.00
10006;BME280;5042;42.626;23.382;2023-05-10T06:01:24;94676.06;;;8.03;100.00
10006;BME280;5042;42.626;23.382;2023-05-10T06:03:51;94676.41;;;8.00;100.00
10006;BME280;5042;42.626;23.382;2023-05-10T06:06:18;94668.94;;;7.81;100.00
10006;BME280;5042;42.626;23.382;2023-05-10T06:08:45;94674.63;;;7.93;100.00
10006;BME280;5042;42.626;23.382;2023-05-10T06:11:11;94680.16;;;7.90;100.00
10006;BME280;5042;42.626;23.382;2023-05-10T06:13:38;94675.91;;;7.97;100.00
10006;BME280;5042;42.626;23.382;2023-05-10T06:16:05;94673.13;;;7.98;100.00
10006;BME280;5042;42.626;23.382;2023-05-10T06:18:33;94670.84;;;8.03;100.00
10006;BME280;5042;42.626;23.382;2023-05-10T06:21:00;94675.09;;;7.96;100.00
10006;BME280;5042;42.626;23.382;2023-05-10T06:23:27;94683.41;;;8.00;100.00
10006;BME280;5042;42.626;23.382;2023-05-10T06:25:54;94683.88;;;8.03;100.00
10006;BME280;5042;42.626;23.382;2023-05-10T06:28:20;94679.31;;;8.05;100.00
10006;BME280;5042;42.626;23.382;2023-05-10T06:30:47;94687.13;;;8.22;100.00
10006;BME280;5042;42.626;23.382;2023-05-10T06:33:14;94686.78;;;8.25;100.00
10006;BME280;5042;42.626;23.382;2023-05-10T06:35:43;94678.78;;;8.18;100.00
10006;BME280;5042;42.626;23.382;2023-05-10T06:38:10;94683.81;;;8.28;100.00
10006;BME280;5042;42.626;23.382;2023-05-10T06:40:37;94691.03;;;8.42;100.00
10006;BME280;5042;42.626;23.382;2023-05-10T06:43:07;94686.78;;;8.41;100.00
10006;BME280;5042;42.626;23.382;2023-05-10T06:45:34;94687.09;;;8.30;100.00
10006;BME280;5042;42.626;23.382;2023-05-10T06:48:00;94684.00;;;8.43;100.00
10006;BME280;5042;42.626;23.382;2023-05-10T06:50:27;94675.78;;;8.54;100.00
10006;BME280;5042;42.626;23.382;2023-05-10T06:52:55;94688.97;;;8.61;100.00
10006;BME280;5042;42.626;23.382;2023-05-10T06:55:22;94687.66;;;8.65;100.00
10006;BME280;5042;42.626;23.382;2023-05-10T06:57:49;94691.59;;;8.69;100.00
10006;BME280;5042;42.626;23.382;2023-05-10T07:00:16;94681.59;;;8.73;100.00
10006;BME280;5042;42.626;23.382;2023-05-10T07:02:43;94683.53;;;8.79;100.00
10006;BME280;5042;42.626;23.382;2023-05-10T07:05:10;94681.78;;;8.71;100.00
10006;BME280;5042;42.626;23.382;2023-05-10T07:07:37;94694.44;;;8.82;100.00
10006;BME280;5042;42.626;23.382;2023-05-10T07:10:06;94657.31;;;8.64;100.00
10006;BME280;5042;42.626;23.382;2023-05-10T07:12:33;94692.16;;;8.87;100.00
10006;BME280;5042;42.626;23.382;2023-05-10T07:15:00;94699.34;;;8.85;100.00
10006;BME280;5042;42.626;23.382;2023-05-10T07:17:27;94686.94;;;8.79;100.00
10006;BME280;5042;42.626;23.382;2023-05-10T07:19:53;94694.06;;;8.62;100.00
10006;BME280;5042;42.626;23.382;2023-05-10T07:22:20;94695.22;;;8.60;100.00
10006;BME280;5042;42.626;23.382;2023-05-10T07:24:47;94690.47;;;8.55;100.00
10006;BME280;5042;42.626;23.382;2023-05-10T07:27:15;94699.13;;;8.64;100.00
10006;BME280;5042;42.626;23.382;2023-05-10T07:29:42;94694.56;;;8.58;100.00
10006;BME280;5042;42.626;23.382;2023-05-10T07:32:09;94692.94;;;8.57;100.00
10006;BME280;5042;42.626;23.382;2023-05-10T07:34:35;94703.31;;;8.73;100.00
10006;BME280;5042;42.626;23.382;2023-05-10T07:37:02;94695.06;;;8.61;100.00
10006;BME280;5042;42.626;23.382;2023-05-10T07:39:29;94699.38;;;8.77;100.00
10006;BME280;5042;42.626;23.382;2023-05-10T07:41:56;94699.66;;;8.82;100.00
10006;BME280;5042;42.626;23.382;2023-05-10T07:44:24;94709.75;;;9.02;100.00
10006;BME280;5042;42.626;23.382;2023-05-10T07:46:51;94716.00;;;8.84;100.00
10006;BME280;5042;42.626;23.382;2023-05-10T07:49:18;94708.47;;;8.89;100.00
10006;BME280;5042;42.626;23.382;2023-05-10T07:51:45;94705.59;;;8.76;100.00
10006;BME280;5042;42.626;23.382;2023-05-10T07:54:12;94713.75;;;8.81;100.00
10006;BME280;5042;42.626;23.382;2023-05-10T07:56:39;94673.66;;;8.58;100.00
10006;BME280;5042;42.626;23.382;2023-05-10T07:59:10;94704.88;;;8.90;100.00
10006;BME280;5042;42.626;23.382;2023-05-10T08:01:38;94706.91;;;8.72;100.00
10006;BME280;5042;42.626;23.382;2023-05-10T08:04:04;94717.09;;;8.98;100.00
10006;BME280;5042;42.626;23.382;2023-05-10T08:06:31;94717.09;;;8.98;100.00
10006;BME280;5042;42.626;23.382;2023-05-10T08:08:58;94711.06;;;8.98;100.00
10006;BME280;5042;42.626;23.382;2023-05-10T08:11:25;94711.16;;;8.73;100.00
10006;BME280;5042;42.626;23.382;2023-05-10T08:13:53;94716.19;;;8.83;100.00
10006;BME280;5042;42.626;23.382;2023-05-10T08:16:20;94700.06;;;8.71;100.00
10006;BME280;5042;42.626;23.382;2023-05-10T08:18:48;94715.00;;;8.94;100.00
10006;BME280;5042;42.626;23.382;2023-05-10T08:21:16;94704.75;;;8.84;100.00
10006;BME280;5042;42.626;23.382;2023-05-10T08:23:42;94716.00;;;8.84;100.00
10006;BME280;5042;42.626;23.382;2023-05-10T08:26:10;94718.59;;;8.93;100.00
10006;BME280;5042;42.626;23.382;2023-05-10T08:28:36;94723.19;;;8.82;100.00
10006;BME280;5042;42.626;23.382;2023-05-10T08:31:04;94719.06;;;8.96;100.00
10006;BME280;5042;42.626;23.382;2023-05-10T08:33:30;94712.66;;;8.99;100.00
10006;BME280;5042;42.626;23.382;2023-05-10T08:35:59;94715.47;;;8.97;100.00
10006;BME280;5042;42.626;23.382;2023-05-10T08:38:25;94713.47;;;8.99;100.00
10006;BME280;5042;42.626;23.382;2023-05-10T08:40:54;94717.22;;;9.05;100.00
10006;BME280;5042;42.626;23.382;2023-05-10T08:43:25;94717.69;;;9.08;100.00
10006;BME280;5042;42.626;23.382;2023-05-10T08:45:53;94718.19;;;9.12;100.00
10006;BME280;5042;42.626;23.382;2023-05-10T08:48:22;94720.81;;;9.04;100.00
10006;BME280;5042;42.626;23.382;2023-05-10T08:50:52;94717.75;;;9.00;100.00
10006;BME280;5042;42.626;23.382;2023-05-10T08:53:24;94720.81;;;9.04;100.00
10006;BME280;5042;42.626;23.382;2023-05-10T08:55:52;94728.38;;;8.99;100.00
10006;BME280;5042;42.626;23.382;2023-05-10T08:58:19;94726.25;;;8.94;100.00
10006;BME280;5042;42.626;23.382;2023-05-10T09:00:48;94723.53;;;8.79;100.00
10006;BME280;5042;42.626;23.382;2023-05-10T09:03:15;94730.84;;;8.92;100.00
10006;BME280;5042;42.626;23.382;2023-05-10T09:05:43;94726.53;;;9.07;100.00
10006;BME280;5042;42.626;23.382;2023-05-10T09:08:10;94728.22;;;8.92;100.00
10006;BME280;5042;42.626;23.382;2023-05-10T09:10:39;94691.84;;;8.82;100.00
10006;BME280;5042;42.626;23.382;2023-05-10T09:13:09;94728.88;;;9.25;100.00
10006;BME280;5042;42.626;23.382;2023-05-10T09:15:36;94720.88;;;9.27;100.00
10006;BME280;5042;42.626;23.382;2023-05-10T09:18:03;94725.53;;;9.40;100.00
10006;BME280;5042;42.626;23.382;2023-05-10T09:20:30;94719.38;;;9.32;100.00
10006;BME280;5042;42.626;23.382;2023-05-10T09:22:57;94723.22;;;9.45;100.00
10006;BME280;5042;42.626;23.382;2023-05-10T09:25:24;94716.69;;;9.41;100.00
10006;BME280;5042;42.626;23.382;2023-05-10T09:27:52;94715.31;;;9.53;100.00
10006;BME280;5042;42.626;23.382;2023-05-10T09:30:24;94704.16;;;9.59;100.00
10006;BME280;5042;42.626;23.382;2023-05-10T09:32:51;94716.47;;;9.73;100.00
10006;BME280;5042;42.626;23.382;2023-05-10T09:35:19;94707.28;;;9.77;100.00
10006;BME280;5042;42.626;23.382;2023-05-10T09:37:47;94690.63;;;9.70;100.00
10006;BME280;5042;42.626;23.382;2023-05-10T09:40:15;94703.50;;;9.80;100.00
10006;BME280;5042;42.626;23.382;2023-05-10T09:42:51;94702.34;;;9.83;100.00
10006;BME280;5042;42.626;23.382;2023-05-10T09:45:21;94683.53;;;9.56;100.00
10006;BME280;5042;42.626;23.382;2023-05-10T09:47:48;94711.81;;;9.84;100.00
10006;BME280;5042;42.626;23.382;2023-05-10T09:50:15;94714.53;;;9.90;100.00
10006;BME280;5042;42.626;23.382;2023-05-10T09:52:49;94706.44;;;9.77;100.00
10006;BME280;5042;42.626;23.382;2023-05-10T09:55:18;94703.41;;;9.88;100.00
10006;BME280;5042;42.626;23.382;2023-05-10T09:57:45;94708.41;;;9.98;100.00
10006;BME280;5042;42.626;23.382;2023-05-10T10:00:17;94697.28;;;9.96;100.00
10006;BME280;5042;42.626;23.382;2023-05-10T10:02:47;94705.25;;;10.03;100.00
10006;BME280;5042;42.626;23.382;2023-05-10T10:05:14;94685.47;;;10.00;100.00
10006;BME280;5042;42.626;23.382;2023-05-10T10:07:41;94695.78;;;10.02;100.00
10006;BME280;5042;42.626;23.382;2023-05-10T10:10:09;94687.19;;;10.08;100.00
10006;BME280;5042;42.626;23.382;2023-05-10T10:12:39;94689.38;;;10.19;100.00
10006;BME280;5042;42.626;23.382;2023-05-10T10:15:07;94681.63;;;10.26;100.00
10006;BME280;5042;42.626;23.382;2023-05-10T10:17:36;94682.97;;;10.22;100.00
10006;BME280;5042;42.626;23.382;2023-05-10T10:20:06;94679.31;;;10.31;100.00
10006;BME280;5042;42.626;23.382;2023-05-10T10:22:33;94685.09;;;10.41;100.00
10006;BME280;5042;42.626;23.382;2023-05-10T10:25:00;94685.09;;;10.41;100.00
10006;BME280;5042;42.626;23.382;2023-05-10T10:27:34;94683.28;;;10.42;100.00
10006;BME280;5042;42.626;23.382;2023-05-10T10:30:10;94687.28;;;10.37;100.00
10006;BME280;5042;42.626;23.382;2023-05-10T10:32:57;94684.38;;;10.32;100.00
10006;BME280;5042;42.626;23.382;2023-05-10T10:35:29;94689.25;;;10.35;100.00
10006;BME280;5042;42.626;23.382;2023-05-10T10:37:57;94682.84;;;10.38;100.00
10006;BME280;5042;42.626;23.382;2023-05-10T10:40:27;94659.56;;;10.20;100.00
10006;BME280;5042;42.626;23.382;2023-05-10T10:42:55;94686.09;;;10.40;100.00
10006;BME280;5042;42.626;23.382;2023-05-10T10:45:23;94673.16;;;10.38;100.00
10006;BME280;5042;42.626;23.382;2023-05-10T10:50:44;94682.03;;;10.52;100.00
10006;BME280;5042;42.626;23.382;2023-05-10T10:53:12;94684.09;;;10.57;100.00
10006;BME280;5042;42.626;23.382;2023-05-10T10:55:45;94687.63;;;10.49;100.00
10006;BME280;5042;42.626;23.382;2023-05-10T10:58:28;94689.19;;;10.58;100.00
10006;BME280;5042;42.626;23.382;2023-05-10T11:01:13;94681.22;;;10.52;100.00
10006;BME280;5042;42.626;23.382;2023-05-10T11:03:41;94691.88;;;10.50;100.00
10006;BME280;5042;42.626;23.382;2023-05-10T11:06:30;94689.63;;;10.47;100.00
10006;BME280;5042;42.626;23.382;2023-05-10T11:08:59;94654.56;;;10.33;100.00
10006;BME280;5042;42.626;23.382;2023-05-10T11:11:26;94687.44;;;10.66;100.00
10006;BME280;5042;42.626;23.382;2023-05-10T11:13:53;94685.53;;;10.59;100.00
10006;BME280;5042;42.626;23.382;2023-05-10T11:16:40;94669.44;;;10.63;100.00
10006;BME280;5042;42.626;23.382;2023-05-10T11:19:10;94685.00;;;10.64;100.00
10006;BME280;5042;42.626;23.382;2023-05-10T11:21:46;94661.53;;;10.56;100.00
10006;BME280;5042;42.626;23.382;2023-05-10T11:24:14;94684.25;;;10.85;100.00
10006;BME280;5042;42.626;23.382;2023-05-10T11:26:42;94681.38;;;10.65;100.00
10006;BME280;5042;42.626;23.382;2023-05-10T11:29:09;94699.19;;;10.70;100.00
10006;BME280;5042;42.626;23.382;2023-05-10T11:31:42;94680.94;;;10.61;100.00
10006;BME280;5042;42.626;23.382;2023-05-10T11:34:09;94682.91;;;10.74;100.00
10006;BME280;5042;42.626;23.382;2023-05-10T11:36:37;94673.09;;;10.47;100.00
10006;BME280;5042;42.626;23.382;2023-05-10T11:39:06;94678.94;;;10.64;100.00
10006;BME280;5042;42.626;23.382;2023-05-10T11:41:33;94688.44;;;10.65;100.00
10006;BME280;5042;42.626;23.382;2023-05-10T11:43:59;94680.81;;;10.70;100.00
10006;BME280;5042;42.626;23.382;2023-05-10T11:46:27;94674.41;;;10.72;100.00
10006;BME280;5042;42.626;23.382;2023-05-10T11:48:57;94692.50;;;10.82;100.00
10006;BME280;5042;42.626;23.382;2023-05-10T11:51:25;94686.88;;;10.85;100.00
10006;BME280;5042;42.626;23.382;2023-05-10T11:53:55;94664.56;;;10.74;100.00
10006;BME280;5042;42.626;23.382;2023-05-10T11:56:23;94679.75;;;10.79;100.00
10006;BME280;5042;42.626;23.382;2023-05-10T11:58:55;94687.25;;;10.82;100.00
10006;BME280;5042;42.626;23.382;2023-05-10T12:01:23;94695.94;;;10.53;100.00
10006;BME280;5042;42.626;23.382;2023-05-10T12:03:51;94688.63;;;10.48;100.00
10006;BME280;5042;42.626;23.382;2023-05-10T12:06:19;94670.28;;;10.33;100.00
10006;BME280;5042;42.626;23.382;2023-05-10T12:08:51;94681.75;;;10.47;100.00
10006;BME280;5042;42.626;23.382;2023-05-10T12:11:19;94679.66;;;10.57;100.00
10006;BME280;5042;42.626;23.382;2023-05-10T12:13:48;94675.44;;;10.56;100.00
10006;BME280;5042;42.626;23.382;2023-05-10T12:16:20;94673.59;;;10.72;100.00
10006;BME280;5042;42.626;23.382;2023-05-10T12:18:48;94669.78;;;10.89;100.00
10006;BME280;5042;42.626;23.382;2023-05-10T12:21:16;94670.31;;;10.99;100.00
10006;BME280;5042;42.626;23.382;2023-05-10T12:23:45;94652.31;;;10.96;100.00
10006;BME280;5042;42.626;23.382;2023-05-10T12:26:12;94668.75;;;11.05;100.00
10006;BME280;5042;42.626;23.382;2023-05-10T12:28:39;94667.78;;;10.91;100.00
10006;BME280;5042;42.626;23.382;2023-05-10T12:31:07;94666.00;;;10.92;100.00
10006;BME280;5042;42.626;23.382;2023-05-10T12:33:38;94657.94;;;10.78;100.00
10006;BME280;5042;42.626;23.382;2023-05-10T12:36:07;94647.63;;;10.92;100.00
10006;BME280;5042;42.626;23.382;2023-05-10T12:38:35;94626.56;;;10.85;100.00
10006;BME280;5042;42.626;23.382;2023-05-10T12:41:05;94614.84;;;11.02;100.00
10006;BME280;5042;42.626;23.382;2023-05-10T12:43:33;94658.81;;;11.37;100.00
10006;BME280;5042;42.626;23.382;2023-05-10T12:46:04;94636.06;;;11.08;100.00
10006;BME280;5042;42.626;23.382;2023-05-10T12:48:33;94647.09;;;11.18;100.00
10006;BME280;5042;42.626;23.382;2023-05-10T12:51:00;94647.16;;;11.24;100.00
10006;BME280;5042;42.626;23.382;2023-05-10T12:53:27;94644.72;;;11.23;100.00
10006;BME280;5042;42.626;23.382;2023-05-10T12:55:54;94645.78;;;11.29;100.00
10006;BME280;5042;42.626;23.382;2023-05-10T12:58:20;94648.88;;;11.32;100.00
10006;BME280;5042;42.626;23.382;2023-05-10T13:00:47;94636.94;;;11.30;100.00
10006;BME280;5042;42.626;23.382;2023-05-10T13:03:14;94636.72;;;11.31;100.00
10006;BME280;5042;42.626;23.382;2023-05-10T13:05:42;94638.22;;;11.19;100.00
10006;BME280;5042;42.626;23.382;2023-05-10T13:08:09;94634.22;;;11.23;100.00